Time;durP1;ratioP1;P1;durP2;ratioP2;P2;SDS_P1;SDS_P2;PMS_P1;PMS_P2;Temp;Humidity;BMP_temperature;BMP_pressure;BME280_temperature;BME280_humidity;BME280_pressure;Samples;Min_cycle;Max_cycle;Signal;HPM_P1;HPM_P2
2023/05/14 00:01:28;;;;;;;5.85;3.85;;;17.60;99.90;;;;;;5077528;28;20192;-85
2023/05/14 00:03:59;;;;;;;5.10;3.60;;;17.70;99.90;;;;;;5090146;28;20206;-85
2023/05/14 00:06:30;;;;;;;5.88;4.00;;;17.70;99.90;;;;;;5076880;28;20571;-84
2023/05/14 00:09:01;;;;;;;4.35;3.47;;;17.80;99.90;;;;;;5090500;28;20599;-86
2023/05/14 00:11:32;;;;;;;4.53;3.63;;;17.80;99.90;;;;;;5088696;28;20196;-85
2023/05/14 00:14:06;;;;;;;3.42;3.13;;;18.00;99.90;;;;;;5093355;28;20219;-85
2023/05/14 00:16:37;;;;;;;5.05;3.80;;;18.10;99.90;;;;;;5094785;28;20199;-85
2023/05/14 00:19:10;;;;;;;3.88;3.47;;;18.20;99.90;;;;;;5094624;28;20179;-84
2023/05/14 00:21:41;;;;;;;3.60;3.08;;;18.20;99.90;;;;;;5090139;28;20231;-85
2023/05/14 00:24:12;;;;;;;3.70;3.13;;;18.40;99.90;;;;;;5089667;28;20218;-83
2023/05/14 00:26:43;;;;;;;3.70;3.05;;;18.40;99.90;;;;;;5093780;28;20184;-83
2023/05/14 00:29:16;;;;;;;3.60;2.65;;;18.50;99.90;;;;;;5092186;28;20219;-85
2023/05/14 00:31:47;;;;;;;3.67;2.75;;;18.50;99.90;;;;;;5071069;28;20200;-85
2023/05/14 00:34:19;;;;;;;3.13;2.42;;;18.60;99.90;;;;;;5069213;28;20211;-83
2023/05/14 00:36:51;;;;;;;2.63;2.38;;;18.70;99.90;;;;;;5073912;28;20199;-83
2023/05/14 00:39:22;;;;;;;2.65;2.00;;;18.70;99.90;;;;;;5068347;28;20198;-84
2023/05/14 00:41:54;;;;;;;2.67;2.03;;;18.70;99.90;;;;;;5088988;28;20286;-84
2023/05/14 00:44:27;;;;;;;1.95;1.60;;;18.80;99.90;;;;;;5083439;28;20195;-84
2023/05/14 00:46:58;;;;;;;2.45;1.70;;;18.90;99.90;;;;;;5093599;28;20197;-84
2023/05/14 00:49:30;;;;;;;3.80;1.60;;;19.00;99.90;;;;;;5094716;28;20194;-85
2023/05/14 00:52:01;;;;;;;2.58;1.63;;;19.10;99.90;;;;;;5083918;28;20545;-82
2023/05/14 00:54:33;;;;;;;2.70;1.73;;;19.20;99.90;;;;;;5073522;28;20227;-83
2023/05/14 00:57:05;;;;;;;3.03;1.60;;;19.30;99.90;;;;;;5073086;28;20531;-82
2023/05/14 00:59:39;;;;;;;2.95;1.80;;;19.40;99.90;;;;;;5072997;28;20196;-83
2023/05/14 01:02:13;;;;;;;2.55;1.60;;;19.50;99.90;;;;;;5081387;28;20194;-83
2023/05/14 01:04:44;;;;;;;2.38;1.52;;;19.60;99.90;;;;;;5093154;28;20195;-83
2023/05/14 01:07:21;;;;;;;2.40;1.27;;;19.70;99.90;;;;;;5082335;28;20218;-83
2023/05/14 01:09:56;;;;;;;2.10;1.00;;;19.80;99.90;;;;;;5086815;28;20288;-83
2023/05/14 01:12:35;;;;;;;1.42;0.80;;;19.90;99.90;;;;;;5064303;28;20591;-82
2023/05/14 01:15:12;;;;;;;1.67;0.90;;;19.90;99.90;;;;;;5072545;28;20753;-83
2023/05/14 01:17:47;;;;;;;1.58;0.90;;;20.00;99.90;;;;;;5070948;28;20200;-83
2023/05/14 01:20:19;;;;;;;1.98;0.80;;;20.10;99.90;;;;;;5080821;28;20230;-82
2023/05/14 01:22:52;;;;;;;3.08;0.80;;;20.10;99.90;;;;;;5092147;28;20203;-84
2023/05/14 01:25:24;;;;;;;1.40;0.70;;;20.20;99.90;;;;;;5093474;28;20203;-84
2023/05/14 01:28:01;;;;;;;2.85;1.00;;;20.30;99.90;;;;;;5081898;28;20227;-83
2023/05/14 01:30:38;;;;;;;2.83;0.88;;;20.40;99.90;;;;;;5079020;28;20534;-83
2023/05/14 01:33:12;;;;;;;1.88;0.80;;;20.50;99.90;;;;;;5080778;28;20269;-84
2023/05/14 01:35:44;;;;;;;2.33;0.90;;;20.60;99.90;;;;;;5070004;28;20207;-83
2023/05/14 01:38:20;;;;;;;2.70;1.10;;;20.70;99.90;;;;;;5084490;28;20620;-84
2023/05/14 01:40:52;;;;;;;2.35;0.85;;;20.70;99.90;;;;;;5090240;28;20198;-85
2023/05/14 01:43:24;;;;;;;2.22;0.93;;;20.70;99.90;;;;;;5056879;28;20564;-83
2023/05/14 01:45:56;;;;;;;2.92;0.95;;;20.60;99.90;;;;;;5092160;28;20183;-84
2023/05/14 01:48:28;;;;;;;3.75;1.27;;;20.50;99.90;;;;;;5072402;28;20604;-84
2023/05/14 01:50:59;;;;;;;2.78;1.15;;;20.60;99.90;;;;;;5069692;28;20203;-82
2023/05/14 01:53:33;;;;;;;2.78;1.05;;;20.50;99.90;;;;;;5066116;28;20223;-82
2023/05/14 01:56:04;;;;;;;1.23;0.90;;;20.40;99.90;;;;;;5081763;28;20193;-83
2023/05/14 01:58:39;;;;;;;2.83;0.80;;;20.30;99.90;;;;;;5080499;28;20214;-83
2023/05/14 02:01:10;;;;;;;1.98;1.00;;;20.30;99.90;;;;;;5085372;28;20202;-84
2023/05/14 02:03:41;;;;;;;2.83;1.02;;;20.20;99.90;;;;;;5074755;28;20196;-82
2023/05/14 02:06:12;;;;;;;2.55;1.20;;;20.20;99.90;;;;;;5076784;28;20207;-84
2023/05/14 02:08:46;;;;;;;4.15;1.33;;;20.10;99.90;;;;;;5091117;28;20207;-82
2023/05/14 02:11:20;;;;;;;4.30;1.48;;;20.10;99.90;;;;;;5064018;28;20188;-85
2023/05/14 02:13:51;;;;;;;5.97;1.42;;;20.10;99.90;;;;;;5073526;28;20228;-83
2023/05/14 02:16:24;;;;;;;3.15;1.20;;;20.00;99.90;;;;;;5063514;28;20198;-84
2023/05/14 02:18:56;;;;;;;3.20;1.20;;;19.90;99.90;;;;;;5083396;28;20211;-84
2023/05/14 02:21:27;;;;;;;6.07;1.75;;;19.90;99.90;;;;;;5081087;28;20317;-83
2023/05/14 02:24:00;;;;;;;4.05;1.30;;;19.80;99.90;;;;;;5085113;28;20200;-82
2023/05/14 02:26:31;;;;;;;2.60;1.20;;;19.80;99.90;;;;;;5080339;28;20690;-83
2023/05/14 02:29:02;;;;;;;3.28;1.20;;;19.80;99.90;;;;;;5091701;28;20210;-83
2023/05/14 02:31:33;;;;;;;2.55;1.10;;;19.70;99.90;;;;;;5087609;28;20187;-84
2023/05/14 02:34:05;;;;;;;2.45;1.35;;;19.70;99.90;;;;;;5091170;28;20233;-84
2023/05/14 02:36:36;;;;;;;2.58;1.13;;;19.70;99.90;;;;;;5085391;28;20211;-83
2023/05/14 02:39:09;;;;;;;2.63;1.13;;;19.70;99.90;;;;;;5085107;28;20225;-82
2023/05/14 02:41:42;;;;;;;4.10;1.30;;;19.70;99.90;;;;;;5095611;28;20195;-82
2023/05/14 02:44:13;;;;;;;3.17;1.23;;;19.70;99.90;;;;;;5091898;28;20195;-83
2023/05/14 02:46:44;;;;;;;4.80;1.33;;;19.70;99.90;;;;;;5089404;28;20658;-82
2023/05/14 02:49:15;;;;;;;3.13;1.15;;;19.70;99.90;;;;;;5107027;28;20188;-81
2023/05/14 02:51:46;;;;;;;1.67;1.13;;;19.70;99.90;;;;;;5099591;28;20195;-83
2023/05/14 02:54:19;;;;;;;2.22;1.35;;;19.70;99.90;;;;;;5101473;28;20250;-84
2023/05/14 02:56:50;;;;;;;2.35;1.20;;;19.70;99.90;;;;;;5117905;28;20194;-84
2023/05/14 02:59:22;;;;;;;2.80;1.23;;;19.70;99.90;;;;;;5114999;28;20199;-84
2023/05/14 03:01:53;;;;;;;2.33;1.40;;;19.80;99.90;;;;;;5092904;28;20627;-82
2023/05/14 03:04:24;;;;;;;2.47;1.02;;;20.10;99.90;;;;;;5096049;28;20707;-83
2023/05/14 03:06:55;;;;;;;3.42;1.10;;;20.10;99.90;;;;;;5088430;28;20206;-84
2023/05/14 03:09:28;;;;;;;2.88;1.42;;;20.20;99.90;;;;;;5092075;28;20184;-83
2023/05/14 03:12:00;;;;;;;3.13;1.35;;;20.10;99.90;;;;;;5081489;28;20386;-83
2023/05/14 03:14:31;;;;;;;2.17;1.13;;;20.20;99.90;;;;;;5092718;28;20219;-83
2023/05/14 03:17:03;;;;;;;2.42;1.00;;;20.20;99.90;;;;;;5093709;28;20195;-83
2023/05/14 03:19:34;;;;;;;2.67;1.02;;;20.20;99.90;;;;;;5093279;28;20203;-83
2023/05/14 03:22:09;;;;;;;1.73;0.82;;;20.10;99.90;;;;;;5091525;28;20227;-83
2023/05/14 03:24:43;;;;;;;3.15;1.00;;;20.10;99.90;;;;;;5093098;28;20321;-83
2023/05/14 03:27:14;;;;;;;1.88;0.90;;;20.10;99.90;;;;;;5082978;28;20215;-83
2023/05/14 03:29:45;;;;;;;3.40;1.55;;;20.00;99.90;;;;;;5083859;28;20592;-84
2023/05/14 03:32:17;;;;;;;2.50;1.33;;;19.90;99.90;;;;;;5088444;28;20191;-84
2023/05/14 03:34:48;;;;;;;2.53;1.00;;;19.90;99.90;;;;;;5071700;28;20232;-83
2023/05/14 03:37:19;;;;;;;4.32;1.58;;;20.00;99.90;;;;;;5087403;28;20231;-84
2023/05/14 03:39:52;;;;;;;2.95;1.20;;;20.00;99.90;;;;;;5094809;28;20207;-82
2023/05/14 03:42:25;;;;;;;4.97;1.70;;;20.00;99.90;;;;;;5090312;28;20210;-83
2023/05/14 03:44:56;;;;;;;3.38;1.30;;;20.00;99.90;;;;;;5089677;28;20236;-83
2023/05/14 03:47:27;;;;;;;4.65;1.50;;;20.00;99.90;;;;;;5090993;28;20203;-84
2023/05/14 03:49:58;;;;;;;4.35;2.08;;;20.00;99.90;;;;;;5094777;28;20199;-83
2023/05/14 03:52:29;;;;;;;4.75;2.10;;;19.90;99.90;;;;;;5086722;28;20201;-85
2023/05/14 03:55:02;;;;;;;2.50;1.40;;;19.90;99.90;;;;;;5092693;28;20245;-84
2023/05/14 03:57:34;;;;;;;2.55;1.25;;;19.80;99.90;;;;;;5096617;28;20213;-84
2023/05/14 04:00:05;;;;;;;2.60;1.20;;;19.80;99.90;;;;;;5096850;28;20194;-84
2023/05/14 04:02:38;;;;;;;5.32;1.10;;;19.80;99.90;;;;;;5087304;28;20253;-85
2023/05/14 04:05:11;;;;;;;3.25;1.00;;;19.80;99.90;;;;;;5077015;28;20235;-85
2023/05/14 04:07:44;;;;;;;3.30;1.20;;;19.80;99.90;;;;;;5076388;28;20202;-85
2023/05/14 04:10:17;;;;;;;2.88;1.00;;;19.80;99.90;;;;;;5093292;28;20215;-85
2023/05/14 04:12:48;;;;;;;2.78;1.08;;;19.70;99.90;;;;;;5094155;28;20219;-79
2023/05/14 04:15:20;;;;;;;1.60;0.82;;;19.80;99.90;;;;;;5087472;28;20682;-84
2023/05/14 04:17:51;;;;;;;2.40;0.90;;;19.80;99.90;;;;;;5105854;28;20199;-84
2023/05/14 04:20:22;;;;;;;2.10;0.80;;;19.80;99.90;;;;;;5102772;28;20241;-84
2023/05/14 04:22:53;;;;;;;2.58;1.10;;;19.80;99.90;;;;;;5094362;28;20203;-85
2023/05/14 04:25:27;;;;;;;2.72;1.00;;;19.80;99.90;;;;;;5092061;28;20195;-85
2023/05/14 04:27:58;;;;;;;2.67;0.82;;;19.80;99.90;;;;;;5094539;28;20700;-85
2023/05/14 04:30:29;;;;;;;1.80;0.68;;;19.80;99.90;;;;;;5091663;28;20187;-84
2023/05/14 04:33:02;;;;;;;1.33;0.60;;;19.90;99.90;;;;;;5091667;28;20661;-83
2023/05/14 04:35:33;;;;;;;2.47;1.00;;;19.80;99.90;;;;;;5091808;28;20254;-83
2023/05/14 04:38:05;;;;;;;0.75;0.50;;;19.80;99.90;;;;;;5075081;28;20580;-83
2023/05/14 04:40:38;;;;;;;0.70;0.60;;;19.90;99.90;;;;;;5092881;28;20231;-83
2023/05/14 04:43:10;;;;;;;1.65;0.50;;;19.90;99.90;;;;;;5094276;28;20614;-83
2023/05/14 04:45:41;;;;;;;1.52;0.70;;;19.90;99.90;;;;;;5093760;28;20207;-83
2023/05/14 04:48:13;;;;;;;1.85;0.65;;;20.00;99.90;;;;;;5091261;28;20700;-84
2023/05/14 04:50:44;;;;;;;3.00;0.80;;;20.00;99.90;;;;;;5092202;28;20676;-83
2023/05/14 04:53:15;;;;;;;4.15;1.10;;;20.00;99.90;;;;;;5089014;28;20244;-83
2023/05/14 04:55:50;;;;;;;3.38;0.90;;;20.10;99.90;;;;;;5092141;28;20219;-84
2023/05/14 04:58:22;;;;;;;2.67;0.73;;;20.10;99.90;;;;;;5091455;28;20190;-82
2023/05/14 05:00:54;;;;;;;2.08;0.80;;;20.20;99.90;;;;;;5090368;28;20187;-82
2023/05/14 05:03:25;;;;;;;3.17;0.70;;;20.30;99.90;;;;;;5085224;28;20196;-85
2023/05/14 05:05:56;;;;;;;3.08;0.70;;;20.30;99.90;;;;;;5084494;28;20199;-83
2023/05/14 05:08:27;;;;;;;2.80;1.08;;;20.40;99.90;;;;;;5092484;28;20203;-83
2023/05/14 05:11:01;;;;;;;5.82;1.00;;;20.40;99.90;;;;;;5086020;28;20314;-82
2023/05/14 05:13:32;;;;;;;2.75;0.80;;;20.60;99.90;;;;;;5093270;28;20194;-84
2023/05/14 05:16:03;;;;;;;4.05;0.77;;;20.60;99.90;;;;;;5092228;28;20195;-83
2023/05/14 05:18:34;;;;;;;1.88;0.80;;;20.50;99.90;;;;;;5099752;28;20202;-83
2023/05/14 05:21:05;;;;;;;1.40;0.70;;;20.50;99.90;;;;;;5107318;28;20254;-83
2023/05/14 05:23:36;;;;;;;3.40;0.90;;;20.40;99.90;;;;;;5094671;28;20279;-83
2023/05/14 05:26:09;;;;;;;3.17;0.80;;;20.40;99.90;;;;;;5095421;28;20199;-83
2023/05/14 05:28:41;;;;;;;2.10;0.70;;;20.50;99.90;;;;;;5091251;28;20562;-83
2023/05/14 05:31:14;;;;;;;2.50;0.70;;;20.40;99.90;;;;;;5095456;28;20958;-82
2023/05/14 05:33:47;;;;;;;3.28;0.60;;;20.30;99.90;;;;;;5092764;28;20188;-83
2023/05/14 05:36:18;;;;;;;2.38;0.70;;;20.30;99.90;;;;;;5093994;28;20203;-83
2023/05/14 05:38:50;;;;;;;3.67;0.88;;;20.40;99.90;;;;;;5096491;28;20188;-84
2023/05/14 05:41:23;;;;;;;1.20;0.80;;;20.40;99.90;;;;;;5093980;28;20273;-83
2023/05/14 05:43:54;;;;;;;2.28;0.90;;;20.30;99.90;;;;;;5089678;28;20191;-84
2023/05/14 05:46:25;;;;;;;1.30;0.73;;;20.30;99.90;;;;;;5092416;28;20676;-83
2023/05/14 05:48:56;;;;;;;3.38;0.82;;;20.30;99.90;;;;;;5093022;28;20560;-83
2023/05/14 05:51:27;;;;;;;1.35;0.70;;;20.30;99.90;;;;;;5086537;28;20207;-84
2023/05/14 05:53:58;;;;;;;3.50;0.80;;;20.30;99.90;;;;;;5089933;28;20223;-83
2023/05/14 05:56:31;;;;;;;1.50;1.08;;;20.40;99.90;;;;;;5092439;28;20199;-81
2023/05/14 05:59:02;;;;;;;2.33;0.88;;;20.40;99.90;;;;;;5093003;28;20195;-82
2023/05/14 06:01:34;;;;;;;1.98;0.80;;;20.40;99.90;;;;;;5081115;28;20195;-82
2023/05/14 06:04:05;;;;;;;4.07;0.80;;;20.60;99.90;;;;;;5081516;28;20198;-83
2023/05/14 06:06:40;;;;;;;2.20;0.90;;;20.60;99.90;;;;;;5087953;28;20203;-84
2023/05/14 06:09:11;;;;;;;1.77;0.70;;;20.60;99.90;;;;;;5092609;28;20190;-84
2023/05/14 06:11:44;;;;;;;2.63;0.90;;;20.60;99.90;;;;;;5092009;28;20215;-83
2023/05/14 06:14:15;;;;;;;1.95;0.80;;;20.50;99.90;;;;;;5087921;28;20199;-83
2023/05/14 06:16:46;;;;;;;3.72;0.70;;;20.40;99.90;;;;;;5084060;28;20206;-83
2023/05/14 06:19:17;;;;;;;1.48;0.70;;;20.30;99.90;;;;;;5085226;28;20230;-83
2023/05/14 06:21:48;;;;;;;2.03;0.80;;;20.40;99.90;;;;;;5085837;28;20221;-83
2023/05/14 06:24:20;;;;;;;0.85;0.70;;;20.50;99.90;;;;;;5091852;28;20199;-84
2023/05/14 06:26:53;;;;;;;2.83;0.90;;;20.50;99.90;;;;;;5086210;28;20253;-83
2023/05/14 06:29:24;;;;;;;1.98;0.50;;;20.30;99.90;;;;;;5081787;28;20187;-83
2023/05/14 06:31:55;;;;;;;1.55;0.63;;;20.30;99.90;;;;;;5091640;28;20665;-84
2023/05/14 06:34:27;;;;;;;1.88;0.88;;;20.20;99.90;;;;;;5091230;28;20579;-83
2023/05/14 06:36:58;;;;;;;1.75;0.70;;;20.10;99.90;;;;;;5068779;28;20581;-84
2023/05/14 06:39:29;;;;;;;2.25;0.77;;;20.00;99.90;;;;;;5071012;28;20192;-83
2023/05/14 06:42:02;;;;;;;1.85;0.88;;;19.90;99.90;;;;;;5071929;28;20559;-84
2023/05/14 06:44:33;;;;;;;0.65;0.50;;;19.80;99.90;;;;;;5072454;28;20211;-83
2023/05/14 06:47:07;;;;;;;1.35;0.52;;;19.80;99.90;;;;;;5072369;28;20681;-83
2023/05/14 06:49:38;;;;;;;2.08;0.98;;;19.70;99.90;;;;;;5071330;28;20199;-83
2023/05/14 06:52:10;;;;;;;2.97;1.95;;;19.70;99.90;;;;;;5076423;28;20191;-83
2023/05/14 06:54:41;;;;;;;5.88;4.13;;;19.60;99.90;;;;;;5066382;28;20691;-83
2023/05/14 06:57:14;;;;;;;3.40;2.72;;;19.60;99.90;;;;;;5092023;28;20285;-83
2023/05/14 06:59:45;;;;;;;2.13;1.60;;;19.50;99.90;;;;;;5084951;28;20562;-83
2023/05/14 07:02:16;;;;;;;2.10;1.25;;;19.50;99.90;;;;;;5086698;28;20191;-83
2023/05/14 07:04:47;;;;;;;1.63;1.20;;;19.40;99.90;;;;;;5091461;28;20207;-83
2023/05/14 07:07:20;;;;;;;1.67;1.40;;;19.40;99.90;;;;;;5089235;28;20206;-84
2023/05/14 07:09:51;;;;;;;3.38;1.42;;;19.30;99.90;;;;;;5083034;28;20222;-83
2023/05/14 07:12:24;;;;;;;3.13;1.30;;;19.30;99.90;;;;;;5088910;28;20234;-83
2023/05/14 07:14:55;;;;;;;2.88;1.20;;;19.20;99.90;;;;;;5091200;28;20226;-82
2023/05/14 07:17:26;;;;;;;1.75;0.93;;;19.20;99.90;;;;;;5082704;28;20195;-83
2023/05/14 07:19:58;;;;;;;2.95;1.40;;;19.20;99.90;;;;;;5094643;28;20183;-83
2023/05/14 07:22:29;;;;;;;2.10;1.25;;;19.10;99.90;;;;;;5092769;28;20195;-83
2023/05/14 07:25:00;;;;;;;1.90;1.50;;;19.10;99.90;;;;;;5095886;28;20210;-83
2023/05/14 07:27:33;;;;;;;2.38;1.42;;;19.00;99.90;;;;;;5088650;28;20187;-82
2023/05/14 07:30:04;;;;;;;3.40;1.20;;;18.90;99.90;;;;;;5082071;28;20208;-83
2023/05/14 07:32:35;;;;;;;3.17;1.50;;;18.80;99.90;;;;;;5088896;28;20196;-83
2023/05/14 07:35:06;;;;;;;2.80;1.63;;;18.80;99.90;;;;;;5103275;28;20313;-83
2023/05/14 07:37:37;;;;;;;1.45;1.27;;;18.80;99.90;;;;;;5087969;28;20227;-84
2023/05/14 07:40:09;;;;;;;2.92;1.60;;;18.70;99.90;;;;;;5095800;28;20226;-83
2023/05/14 07:42:43;;;;;;;2.50;1.95;;;18.70;99.90;;;;;;5095441;28;20199;-82
2023/05/14 07:45:14;;;;;;;3.42;2.75;;;18.60;99.90;;;;;;5083883;28;20544;-83
2023/05/14 07:47:45;;;;;;;4.15;1.90;;;18.60;99.90;;;;;;5082251;28;20203;-82
2023/05/14 07:50:16;;;;;;;3.53;1.80;;;18.60;99.90;;;;;;5094942;28;20209;-83
2023/05/14 07:52:47;;;;;;;2.90;1.92;;;18.60;99.90;;;;;;5091129;28;20192;-83
2023/05/14 07:55:18;;;;;;;2.30;1.77;;;18.60;99.90;;;;;;5092372;28;20583;-82
2023/05/14 07:57:51;;;;;;;3.00;1.73;;;18.60;99.90;;;;;;5090739;28;20191;-83
2023/05/14 08:00:23;;;;;;;4.20;1.83;;;18.60;99.90;;;;;;5095732;28;20209;-82
2023/05/14 08:02:54;;;;;;;3.58;1.83;;;18.50;99.90;;;;;;5096010;28;20265;-81
2023/05/14 08:05:25;;;;;;;2.45;1.63;;;18.50;99.90;;;;;;5100157;28;20200;-82
2023/05/14 08:07:57;;;;;;;3.22;1.95;;;18.40;99.90;;;;;;5095851;28;20643;-82
2023/05/14 08:10:29;;;;;;;4.82;2.13;;;18.50;99.90;;;;;;5087156;28;20195;-83
2023/05/14 08:13:02;;;;;;;2.67;2.00;;;18.40;99.90;;;;;;5081306;28;20197;-83
2023/05/14 08:15:33;;;;;;;2.70;1.95;;;18.40;99.90;;;;;;5078485;28;20717;-82
2023/05/14 08:18:04;;;;;;;2.47;2.00;;;18.30;99.90;;;;;;5089322;28;20215;-83
2023/05/14 08:20:35;;;;;;;2.75;1.90;;;18.30;99.90;;;;;;5094287;28;20731;-83
2023/05/14 08:23:06;;;;;;;3.15;1.95;;;18.30;99.90;;;;;;5096810;28;20264;-82
2023/05/14 08:25:39;;;;;;;3.53;2.40;;;18.40;99.90;;;;;;5099050;28;20206;-82
2023/05/14 08:28:13;;;;;;;4.18;1.85;;;18.40;99.90;;;;;;5098524;28;20658;-82
2023/05/14 08:30:45;;;;;;;3.78;1.02;;;18.40;99.90;;;;;;5096779;28;20195;-84
2023/05/14 08:33:16;;;;;;;3.30;1.00;;;18.40;99.90;;;;;;5097124;28;20199;-83
2023/05/14 08:35:49;;;;;;;3.65;1.00;;;18.40;99.90;;;;;;5106897;28;20302;-83
2023/05/14 08:38:20;;;;;;;2.75;0.65;;;18.40;99.90;;;;;;5096826;28;20200;-82
2023/05/14 08:40:56;;;;;;;4.38;2.20;;;18.30;99.90;;;;;;5097783;28;20262;-81
2023/05/14 08:43:32;;;;;;;6.45;2.17;;;18.30;99.90;;;;;;5096739;28;20191;-81
2023/05/14 08:46:07;;;;;;;7.00;3.40;;;18.30;99.90;;;;;;5096717;28;20226;-81
2023/05/14 08:48:42;;;;;;;9.95;5.15;;;18.30;99.90;;;;;;5095163;28;20562;-84
2023/05/14 08:51:13;;;;;;;8.73;3.53;;;18.30;99.90;;;;;;5095169;28;20199;-82
2023/05/14 08:53:45;;;;;;;10.15;5.32;;;18.20;99.90;;;;;;5095409;28;20586;-82
2023/05/14 08:56:20;;;;;;;9.85;6.80;;;18.20;99.90;;;;;;5096034;28;20262;-83
2023/05/14 08:58:53;;;;;;;12.43;6.57;;;18.20;99.90;;;;;;5096777;28;20268;-82
2023/05/14 09:01:24;;;;;;;14.75;9.40;;;18.20;99.90;;;;;;5076271;28;20210;-83
2023/05/14 09:03:56;;;;;;;14.88;11.00;;;18.20;99.90;;;;;;5092161;28;20191;-84
2023/05/14 09:06:29;;;;;;;7.07;4.20;;;18.20;99.90;;;;;;5095318;28;20198;-84
2023/05/14 09:09:00;;;;;;;7.07;3.88;;;18.10;99.90;;;;;;5095199;28;20184;-83
2023/05/14 09:11:33;;;;;;;4.97;3.08;;;18.10;99.90;;;;;;5096038;28;20199;-84
2023/05/14 09:14:07;;;;;;;3.88;3.05;;;18.10;99.90;;;;;;5096246;28;20301;-84
2023/05/14 09:16:41;;;;;;;9.20;3.80;;;18.10;99.90;;;;;;5095595;28;20233;-85
2023/05/14 09:19:12;;;;;;;5.55;3.45;;;18.10;99.90;;;;;;5083958;28;20206;-81
2023/05/14 09:21:44;;;;;;;5.72;3.80;;;18.10;99.90;;;;;;5096268;28;20223;-83
2023/05/14 09:24:22;;;;;;;4.43;3.42;;;18.10;99.90;;;;;;5084697;28;20206;-83
2023/05/14 09:26:55;;;;;;;6.80;3.70;;;18.10;99.90;;;;;;5073322;28;20200;-82
2023/05/14 09:29:31;;;;;;;4.47;3.90;;;18.00;99.90;;;;;;5073126;28;20555;-82
2023/05/14 09:32:06;;;;;;;5.47;3.20;;;18.00;99.90;;;;;;5080254;28;20199;-83
2023/05/14 09:34:39;;;;;;;5.00;3.00;;;17.90;99.90;;;;;;5094033;28;20560;-82
2023/05/14 09:37:11;;;;;;;4.78;3.08;;;18.00;99.90;;;;;;5092613;28;20264;-83
2023/05/14 09:39:42;;;;;;;4.30;3.00;;;18.00;99.90;;;;;;5092304;28;20195;-82
2023/05/14 09:42:13;;;;;;;3.97;2.95;;;18.00;99.90;;;;;;5091923;28;20184;-82
2023/05/14 09:44:47;;;;;;;5.85;2.67;;;18.00;99.90;;;;;;5092433;28;20187;-82
2023/05/14 09:47:19;;;;;;;4.18;2.78;;;18.00;99.90;;;;;;5092303;28;20229;-80
2023/05/14 09:49:52;;;;;;;5.28;2.58;;;18.00;99.90;;;;;;5092800;28;20206;-81
2023/05/14 09:52:25;;;;;;;4.80;2.83;;;18.00;99.90;;;;;;5092431;28;20206;-81
2023/05/14 09:54:56;;;;;;;6.45;3.60;;;18.00;99.90;;;;;;5092384;28;20213;-83
2023/05/14 09:57:27;;;;;;;7.75;4.55;;;17.90;99.90;;;;;;5089724;28;20223;-84
2023/05/14 10:00:01;;;;;;;7.72;4.50;;;17.90;99.90;;;;;;5059871;28;20204;-82
2023/05/14 10:02:39;;;;;;;6.28;3.80;;;17.90;99.90;;;;;;5054707;28;20187;-82
2023/05/14 10:05:11;;;;;;;7.20;5.50;;;17.90;99.90;;;;;;5072021;28;20200;-83
2023/05/14 10:07:45;;;;;;;6.38;5.35;;;17.90;99.90;;;;;;5071558;28;20195;-83
2023/05/14 10:10:20;;;;;;;8.10;5.10;;;17.90;99.90;;;;;;5071545;28;20188;-82
2023/05/14 10:12:56;;;;;;;8.38;5.70;;;17.90;99.90;;;;;;5071622;28;20203;-82
2023/05/14 10:15:35;;;;;;;6.05;3.50;;;17.90;99.90;;;;;;5071898;28;20279;-83
2023/05/14 10:18:10;;;;;;;5.28;3.03;;;17.90;99.90;;;;;;5087816;28;20256;-82
2023/05/14 10:20:42;;;;;;;5.63;3.00;;;17.80;99.90;;;;;;5098198;28;20230;-82
2023/05/14 10:23:13;;;;;;;4.15;2.92;;;17.80;99.90;;;;;;5112186;28;20179;-83
2023/05/14 10:25:46;;;;;;;4.72;3.30;;;17.70;99.90;;;;;;5112029;28;20191;-82
2023/05/14 10:28:19;;;;;;;5.88;3.38;;;17.80;99.90;;;;;;5114594;28;20190;-83
2023/05/14 10:30:58;;;;;;;5.57;3.65;;;17.70;99.90;;;;;;5116694;28;20301;-83
2023/05/14 10:33:29;;;;;;;6.82;3.50;;;17.60;99.90;;;;;;5102663;28;20190;-83
2023/05/14 10:36:03;;;;;;;4.18;2.88;;;17.70;99.90;;;;;;5097868;28;20218;-82
2023/05/14 10:38:37;;;;;;;5.25;3.03;;;17.70;99.90;;;;;;5100727;28;20213;-83
2023/05/14 10:41:12;;;;;;;4.25;2.30;;;17.70;99.90;;;;;;5098680;28;20213;-83
2023/05/14 10:43:43;;;;;;;5.47;2.10;;;17.70;99.90;;;;;;5098042;28;20202;-83
2023/05/14 10:46:18;;;;;;;3.25;2.25;;;17.70;99.90;;;;;;5093766;28;20219;-83
2023/05/14 10:48:51;;;;;;;3.72;2.05;;;17.70;99.90;;;;;;5095088;28;20193;-82
2023/05/14 10:51:22;;;;;;;4.18;2.20;;;17.70;99.90;;;;;;5094888;28;20276;-85
2023/05/14 10:53:54;;;;;;;3.45;2.67;;;17.70;99.90;;;;;;5095166;28;20207;-84
2023/05/14 10:56:27;;;;;;;5.30;3.70;;;17.70;99.90;;;;;;5097584;28;20218;-84
2023/05/14 10:59:01;;;;;;;5.05;3.40;;;17.70;99.90;;;;;;5096793;28;20262;-84
2023/05/14 11:01:35;;;;;;;5.20;3.30;;;17.70;99.90;;;;;;5081111;28;20190;-83
2023/05/14 11:04:08;;;;;;;4.28;3.00;;;17.70;99.90;;;;;;5096316;28;20231;-84
2023/05/14 11:06:42;;;;;;;4.47;3.05;;;17.60;99.90;;;;;;5097016;28;20282;-84
2023/05/14 11:09:18;;;;;;;6.05;3.03;;;17.70;99.90;;;;;;5095455;28;20252;-83
2023/05/14 11:11:51;;;;;;;3.92;2.97;;;17.70;99.90;;;;;;5096149;28;20220;-83
2023/05/14 11:14:23;;;;;;;4.95;3.40;;;17.70;99.90;;;;;;5077898;28;20573;-83
2023/05/14 11:16:58;;;;;;;6.70;3.63;;;17.70;99.90;;;;;;5080529;28;20300;-82
2023/05/14 11:19:32;;;;;;;4.93;3.97;;;17.70;99.90;;;;;;5096398;28;20649;-83
2023/05/14 11:22:03;;;;;;;4.68;3.42;;;17.70;99.90;;;;;;5093739;28;20235;-82
2023/05/14 11:24:35;;;;;;;4.75;3.25;;;17.70;99.90;;;;;;5097701;28;20287;-82
2023/05/14 11:27:10;;;;;;;5.53;3.03;;;17.60;99.90;;;;;;5099611;28;20209;-84
2023/05/14 11:29:46;;;;;;;3.90;2.85;;;17.50;99.90;;;;;;5097136;28;20570;-83
2023/05/14 11:32:21;;;;;;;5.75;3.20;;;17.50;99.90;;;;;;5094417;28;20653;-83
2023/05/14 11:34:52;;;;;;;5.28;3.30;;;17.50;99.90;;;;;;5095612;28;20203;-82
2023/05/14 11:37:24;;;;;;;3.10;2.75;;;17.50;99.90;;;;;;5097707;28;20237;-83
2023/05/14 11:39:57;;;;;;;3.50;2.83;;;17.50;99.90;;;;;;5097067;28;20199;-82
2023/05/14 11:42:29;;;;;;;3.00;2.70;;;17.50;99.90;;;;;;5097851;28;20213;-77
2023/05/14 11:45:00;;;;;;;3.97;2.72;;;17.40;99.90;;;;;;5097564;28;20201;-79
2023/05/14 11:47:34;;;;;;;4.82;3.10;;;17.40;99.90;;;;;;5094057;28;20202;-78
2023/05/14 11:50:05;;;;;;;4.82;2.97;;;17.40;99.90;;;;;;5094920;28;20204;-80
2023/05/14 11:52:42;;;;;;;4.43;3.00;;;17.40;99.90;;;;;;5089377;28;20287;-78
2023/05/14 11:55:15;;;;;;;4.78;3.20;;;17.40;99.90;;;;;;5073997;28;20210;-77
2023/05/14 11:57:47;;;;;;;4.80;3.17;;;17.30;99.90;;;;;;5073740;28;20227;-80
2023/05/14 12:00:21;;;;;;;3.97;3.25;;;17.30;99.90;;;;;;5072561;28;20253;-78
2023/05/14 12:02:57;;;;;;;5.15;2.75;;;17.30;99.90;;;;;;5074340;28;20202;-77
2023/05/14 12:05:31;;;;;;;3.47;3.17;;;17.30;99.90;;;;;;5078809;28;20200;-78
2023/05/14 12:08:04;;;;;;;4.95;3.25;;;17.20;99.90;;;;;;5077706;28;20200;-77
2023/05/14 12:10:44;;;;;;;4.63;3.30;;;17.20;99.90;;;;;;5077578;28;20188;-78
2023/05/14 12:13:19;;;;;;;4.03;3.40;;;17.10;99.90;;;;;;5077307;28;20207;-79
2023/05/14 12:15:55;;;;;;;4.82;3.20;;;17.10;99.90;;;;;;5078191;28;20206;-78
2023/05/14 12:18:29;;;;;;;4.07;3.40;;;17.10;99.90;;;;;;5078302;28;20206;-78
2023/05/14 12:21:07;;;;;;;5.80;3.67;;;17.10;99.90;;;;;;5086605;28;20724;-78
2023/05/14 12:23:40;;;;;;;4.28;3.40;;;17.10;99.90;;;;;;5083291;28;20184;-78
2023/05/14 12:26:11;;;;;;;4.60;3.38;;;17.20;99.90;;;;;;5100522;28;20199;-78
2023/05/14 12:28:49;;;;;;;5.85;3.67;;;17.10;99.90;;;;;;5095636;28;20198;-77
2023/05/14 12:31:23;;;;;;;5.60;3.58;;;17.10;99.90;;;;;;5095672;28;20234;-76
2023/05/14 12:33:58;;;;;;;4.50;3.40;;;17.10;99.90;;;;;;5076877;28;20546;-77
2023/05/14 12:36:29;;;;;;;3.42;3.08;;;17.10;99.90;;;;;;5093766;28;20681;-77
2023/05/14 12:39:04;;;;;;;5.22;3.65;;;17.10;99.90;;;;;;5093315;28;20196;-78
2023/05/14 12:41:36;;;;;;;5.18;3.58;;;17.10;99.90;;;;;;5093096;28;20286;-78
2023/05/14 12:44:07;;;;;;;4.00;3.30;;;17.00;99.90;;;;;;5092987;28;20559;-76
2023/05/14 12:46:38;;;;;;;5.82;3.58;;;17.10;99.90;;;;;;5093063;28;20214;-77
2023/05/14 12:49:11;;;;;;;3.97;3.35;;;17.00;99.90;;;;;;5093160;28;20199;-76
2023/05/14 12:51:42;;;;;;;4.80;3.50;;;17.10;99.90;;;;;;5072564;28;20210;-77
2023/05/14 12:54:14;;;;;;;5.70;3.75;;;17.10;99.90;;;;;;5077330;28;20195;-77
2023/05/14 12:56:45;;;;;;;4.60;3.38;;;17.00;99.90;;;;;;5092569;28;20277;-78
2023/05/14 12:59:17;;;;;;;5.00;3.58;;;17.00;99.90;;;;;;5095112;28;20195;-77
2023/05/14 13:01:48;;;;;;;4.50;3.95;;;16.90;99.90;;;;;;5094834;28;20659;-76
2023/05/14 13:04:21;;;;;;;4.72;3.33;;;16.90;99.90;;;;;;5094894;28;20195;-78
2023/05/14 13:06:53;;;;;;;4.95;3.65;;;16.90;99.90;;;;;;5100486;28;20202;-76
2023/05/14 13:09:24;;;;;;;5.25;3.60;;;16.90;99.90;;;;;;5113013;28;20198;-76
2023/05/14 13:11:56;;;;;;;4.55;3.30;;;16.90;99.90;;;;;;5113517;28;20228;-77